Frierson, Louisiana
Current Conditions -  °F | °C
As of 3:56 PM on Sunday 23 Nov 2014 (Local Time) from KSHV Reporting Station
Clear Clear  
Wind Chill: 72°   Ceiling: Unl
Heat Index: 72°   Visibility: 10mi
Dew Point: 56°   Wind: 15mph
Humidity: 57%   Direction: 190°S
Pressure: 29.43"   Gusts: NA
Location:  32.25°N, 93.69°W
Report Text: KSHV 232156Z 19013KT 10SM CLR 22/13 A2943 RMK AO2 SLP963 T02220133
Loading
Personal Weather Stations






























Interactive Weather Map New forecast layout! Learn more

10-Day Weather Forecast

Advertisements
Track Severe Weather on mobile